CheckWX is a tool to help pilots better visualize weather data.  It is not intended as a substitute for an official pre-flight weather briefing.

08:43:06 UTC

KICT METAR
Wichita Dwight D Eisenhower National Airport
Wichita, Kansas, USA
Current

50 mins ago

KICT 120753Z 18021KT 10SM BKN180 BKN220 05/M02 A3012 RMK AO2 PK WND 18028/0718 SLP202 T00501017
Observed
Dec-12 @ 07:53 UTC
Wind
  • 180° at 21 KTS
Visibility
10 SM
Flight Rules
VFR
Cloud Levels
  • Broken at 18,000' AGL
  • Broken at 22,000' AGL
Temperature
C / 41°F
Dewpoint
-2°C / 28°F
Humidity
61%
Altimeter
30.12" Hg
Pressure
1020.02 hPa
Previous

2 hours ago

KICT 120653Z 18020G26KT 10SM BKN180 BKN220 05/M02 A3012 RMK AO2 PK WND 18030/0622 SLP203 T00501017
Observed
Dec-12 @ 06:53 UTC
Wind
  • 180° at 20 KTS
  • Gusting to 26 KTS
Visibility
10 SM
Flight Rules
VFR
Cloud Levels
  • Broken at 18,000' AGL
  • Broken at 22,000' AGL
Temperature
C / 41°F
Dewpoint
-2°C / 28°F
Humidity
61%
Altimeter
30.12" Hg
Pressure
1020.02 hPa
Previous

3 hours ago

KICT 120553Z 18019G27KT 10SM BKN180 BKN220 06/M02 A3014 RMK AO2 PK WND 17031/0532 SLP208 T00561022 10072 20044 401061061 56017
Observed
Dec-12 @ 05:53 UTC
Wind
  • 180° at 19 KTS
  • Gusting to 27 KTS
Visibility
10 SM
Flight Rules
VFR
Cloud Levels
  • Broken at 18,000' AGL
  • Broken at 22,000' AGL
Temperature
C / 43°F
Dewpoint
-2°C / 28°F
Humidity
57%
Altimeter
30.14" Hg
Pressure
1020.62 hPa